Loisir ou Compétition : Rejoignez un Club de la Fédération

Résultats

TRAVERSEE DE CHARTREUSE

SAPPEY / ST HUGUES

FOND P Hommes

Jury de Compétition

Délégué Technique :
GIRARD BLANC MICHEL (DA)
D.T. Adjoint :
 
Dir. Epreuve :
DUCASTEL NICOLAS (DA)

Caractéristiques de la Piste

Piste :
 
Distance :
28 km
Point Haut :
 
Point Bas :
 
Montée Tot. :
 
Montée Max. :
 
Homologation :
 

Pénalité Appliquée :
31.8320
Coefficient :
1000

Catégorie :
JEU>V4
Style :
L
Clt Dos Clt/Cat Code An Nom Prénom Com Club Temps Ecart Points
Classés
1 32 1/SEN FFS930121 1981 HUARD ANAEL MB SC GD BORNAN 58:58.1 00:00.0 31.83
2 10 1/VET1 FFS502344 1971 GAILLARD LILIAN DA SA MEAUDRAIS 58:59.3 00:01.2 32.17
3 8 2/SEN FFS540604 1983 DUCHENE VINCENT DA SA MEAUDRAIS 58:59.7 00:01.6 32.28
4 122 3/SEN FFS510415 1978 POIREE GAEL DA DOUA/VERCORS 59:00.1 00:02.0 32.40
5 2 4/SEN FFS2108842 1974 CHAPUIS PATRICE MJ OLYMP MT DOR 59:23.9 00:25.8 39.12
6 4 2/VET1 FFS520575 1966 BULLE OLIVIER DA CSA REYNIES 1h00:19.1 01:21.0 54.72
7 28 5/SEN FFS512134 1981 GIRARD BLANC DAMIEN DA CS VILLARD 1h01:11.4 02:13.3 69.51
8 12 3/VET1 FFS810473 1968 FLOCHON JEAN MICHEL LY US CORMARANC 1h01:16.2 02:18.1 70.86
9 9 6/SEN FFS500695 1978 FANJAS CLARET NICOLAS DA CS VILLARD 1h01:30.3 02:32.2 74.85
10 20 7/SEN FFS920097 1980 LAURIN JEAN PASCAL MB SC GD BORNAN 1h01:45.8 02:47.7 79.23
11 13 1/VET2 FFS291437 1960 DUCHAMPT J FRANCOIS AU ACCSN 1h01:49.7 02:51.6 80.33
12 129 8/SEN FFS2240081 1983 OCCELLI BAPTISTE DA SN CHARTROUS 1h01:50.0 02:51.9 80.42
13 17 4/VET1 FFS1393317 1971 GORRY FRANCK DA SNGR OISANS 1h03:37.4 04:39.3 110.77
14 101 5/VET1 FFS506015 1972 GALLIN STEPHANE DA SN CHARTROUS 1h03:49.6 04:51.5 114.22
15 5 9/SEN FFS2159440 1982 FELIX THOMAS DA SN CHARTROUS 1h03:52.8 04:54.7 115.12
16 21 10/SEN FFS2206584 1982 ROUSSELY JULIEN DA US AUTRANNAI 1h05:23.0 06:24.9 140.62
17 180 11/SEN FFS506017 1974 CONSTANTIN CHRISTOPHE DA SN CHARTROUS 1h06:02.9 07:04.8 151.89
18 1 6/VET1 FFS743552 1964 MARGUET PATRICK DA US AUTRANNAI 1h06:08.2 07:10.1 153.39
19 175 2/VET2 FFS511869 1963 DEVAUX J FRANCOIS DA CS VILLARD 1h06:15.0 07:16.9 155.31
20 3 7/VET1 FFS543087 1973 OLIVAIN CHRISTOPHE DA GUC SPORTS N 1h06:20.7 07:22.6 156.93
21 29 8/VET1 FFS1493917 1972 SCHOTT PASCAL MV SONDERNACH 1h06:25.3 07:27.2 158.23
22 193 3/VET2 TIC69270 1963 PASTEUR OLIVIER 1h06:25.5 07:27.4 158.28
23 18 9/VET1 FFS810534 1971 GRANDCLEMENT PHILIPPE LY CS VALROMEY 1h06:40.4 07:42.3 162.49
24 31 12/SEN FFS510230 1981 THORET ALBAN DA SNGR OISANS 1h06:47.0 07:48.9 164.36
25 120 10/VET1 FFS2616077 1964 Nicoll Ed DA US AUTRANNAI 1h06:53.4 07:55.3 166.17
26 158 11/VET1 FFS2613514 1966 MARIN CHRISTOPHE DA EGREVE NORDI 1h07:00.7 08:02.6 168.23
27 156 12/VET1 FFS2203174 1967 GREGOIRE PHILIPPE PE SC BEILLE 1h07:01.3 08:03.2 168.40
28 172 13/VET1 FFS2174374 1964 GENIN LIONEL DA CS VILLARD 1h07:17.0 08:18.9 172.84
29 27 14/VET1 FFS2335060 1967 CLAUSTRE LAURENT DA CS VILLARD 1h07:18.9 08:20.8 173.37
30 19 13/SEN FFS529776 1979 BAYON LIONEL DA GUC SPORTS N 1h08:07.4 09:09.3 187.08
31 11 1/JUN FFS2291935 1985 RUELLE SYLVAIN DA GUC SPORTS N 1h08:08.9 09:10.8 187.51
32 218 15/VET1 TIC69372 1965 FARET PATRICK 1h08:40.7 09:42.6 196.49
33 26 16/VET1 FFS2275167 1973 HOLIN FABIEN DA SNGR OISANS 1h08:48.5 09:50.4 198.70
34 198 17/VET1 TIC69283 1967 FAURE CHRISTOPHE 1h08:58.1 10:00.0 201.41
35 25 4/VET2 FFS502384 1960 LAFAY MICHEL DA SNGR OISANS 1h09:04.4 10:06.3 203.19
36 184 14/SEN TIC69259 1974 NORMAND JOSEPH 1h09:31.6 10:33.5 210.88
37 7 18/VET1 FFS2603334 1972 LECOMTE BENJAMIN DA EGREVE NORDI 1h09:38.6 10:40.5 212.86
38 189 15/SEN TIC69265 1976 ROCHEX FREDERIC 1h10:25.0 11:26.9 225.97
39 186 16/SEN TIC69260 1977 NEYRON FRANCOIS 1h10:58.4 12:00.3 235.41
40 125 19/VET1 TIC69239 1973 KILLING ARNAULD 1h11:33.9 12:35.8 245.45
41 210 5/VET2 FFS2304735 1962 Morin Michel DA VSF 1h11:40.4 12:42.3 247.28
42 159 17/SEN FFS2334754 1975 DESCOTES GENON VINCENT DA SN CHARTROUS 1h12:00.8 13:02.7 253.05
43 16 18/SEN FFS900220 1977 REZVOY BENOIT MB SC GD BORNAN 1h12:15.6 13:17.5 257.23
44 162 19/SEN LCN10172448 1975 LECOMTE FABIEN 1h12:24.8 13:26.7 259.83
45 135 6/VET2 FFS1093293 1959 FLAUX MARCEL SA SCCS 1h12:31.9 13:33.8 261.84
46 6 7/VET2 FFS2186630 1962 VASSAL XAVIER SA CN REVARD 1h12:44.5 13:46.4 265.40
47 187 8/VET2 FFS2144641 1961 BRUN JEAN CLAUDE DA CO SEPT LAUX 1h12:46.3 13:48.2 265.91
48 166 20/SEN FFS2301706 1981 GUIBERT AUGUSTIN AU CRETES FOREZ 1h12:47.6 13:49.5 266.28
49 167 9/VET2 FFS220576 1962 MOREL PHILIPPE AU PLOMB CANTAL 1h13:20.9 14:22.8 275.69
50 118 1/VET3 FFS1394310 1953 RADICI PIERRE SA SCCS 1h13:23.9 14:25.8 276.54
51 106 20/VET1 FFS2605655 1972 BENTOUMI NOUREDDINE DA GUC SPORTS N 1h13:54.0 14:55.9 285.05
52 121 10/VET2 FFS2315180 1957 FACCIO JEAN DENIS SA CS LA FECLAZ 1h14:24.5 15:26.4 293.67
53 110 21/VET1 FFS2273777 1967 PAGE PHILIPPE DA CS VILLARD 1h14:25.9 15:27.8 294.06
54 22 21/SEN FFS500483 1978 ARNAUD XAVIER DA SA MEAUDRAIS 1h14:32.1 15:34.0 295.81
55 109 22/SEN FFS230097 1980 BOULEGUE Pierre DA SN CHARTROUS 1h14:34.7 15:36.6 296.55
56 152 23/SEN FFS220101 1980 RUSSIAS GREGORY AU ASPTT CLT FD 1h14:36.0 15:37.9 296.92
57 115 22/VET1 TIC69251 1965 BERNARD PIERRE 1h14:44.0 15:45.9 299.18
58 181 11/VET2 FFS502558 1957 LEVRINO GILBERT DA EGREVE NORDI 1h15:10.0 16:11.9 306.53
59 202 24/SEN TIC69365 1976 PESANAO YANN 1h15:16.1 16:18.0 308.25
60 191 12/VET2 TIC69272 1962 LEBRETON LUC 1h15:28.8 16:30.7 311.84
61 151 13/VET2 FFS2244209 1954 GENOD JEAN LUC LY US CORMARANC 1h16:33.7 17:35.6 330.18
62 165 25/SEN FFS2331634 1978 FOURNIER AURELIEN AU PLOMB CANTAL 1h16:34.8 17:36.7 330.49
63 157 23/VET1 LCN10113947 1972 RIAS EMMANUEL DA EGREVE NORDI 1h16:37.9 17:39.8 331.37
64 33 26/SEN FFS912837 1979 REZVOY VINCENT MB SC GD BORNAN 1h16:50.0 17:51.9 334.79
65 114 24/VET1 FFS2335052 1971 THIEVENT DAVID DA EGREVE NORDI 1h17:06.9 18:08.8 339.57
66 161 14/VET2 LCN10113956 1956 BERLIAT JEAN MARC 1h17:07.2 18:09.1 339.65
67 138 25/VET1 TIC69245 1969 POCACHARD CHRISTOPHE 1h17:52.2 18:54.1 352.37
68 229 27/SEN TIC69385 1980 BOISSY YOHAN 1h18:35.6 19:37.5 364.64
69 178 15/VET2 FFS2305107 1959 BERTRAND CHRISTOPHE DA SN CHARTROUS 1h18:37.6 19:39.5 365.20
70 206 16/VET2 FFS521848 1957 LEGRAS DANIEL DA COF MOIRANS 1h18:39.0 19:40.9 365.60
71 216 2/JUN FFS2126532 1984 BERNARD NICOLAS DA SN CHARTROUS 1h18:39.3 19:41.2 365.68
72 155 28/SEN FFS2306650 1976 QUERON GUILLAUME MJ SC NOZEROY 1h18:51.3 19:53.2 369.07
73 105 17/VET2 FFS2206160 1956 ROUSSELY PHILIPPE DA US AUTRANNAI 1h19:08.9 20:10.8 374.05
74 214 26/VET1 TIC69370 1967 JULLIARD FREDERIC 1h19:09.9 20:11.8 374.33
75 130 18/VET2 FFS2616822 1963 Delion Stephane SA SCCS 1h19:18.8 20:20.7 376.85
76 112 27/VET1 LCN10121611 1965 LAVEUVE ERIC DA SN CHARTROUS 1h19:32.6 20:34.5 380.75
77 100 28/VET1 TIC69231 1971 FOUGERES MATHIEU 1h20:23.7 21:25.6 395.19
78 153 19/VET2 FFS2305154 1958 MARMET HUBERT DA GUC SPORTS N 1h20:30.1 21:32.0 397.00
79 168 29/VET1 FFS2236732 1972 FORCE SYLVAIN AU CRETES FOREZ 1h20:41.7 21:43.6 400.28
80 196 1/VET4 FFS2335524 1900 [I]BEATRIX J PIERRE DA US AUTRANNAI 1h21:29.0 22:30.9 413.65
81 213 20/VET2 LCN10121598 1957 DONNIER VALENTIN JEAN NOE DA SN CHARTROUS 1h21:31.8 22:33.7 414.44
82 195 30/VET1 TIC69269 1971 CONVERT PATRICE 1h21:39.9 22:41.8 416.73
83 215 2/VET3 FFS2141386 1947 VIGNARD PIERRE DA SF VOIRONNAI 1h21:40.7 22:42.6 416.95
84 107 21/VET2 FFS390245 1959 MEUNIER JEAN LOUIS CE LUNEL SKI 1h22:03.3 23:05.2 423.34
85 124 29/SEN TIC69367 1976 MONNET Serge DA CAF ISERE 1h22:05.1 23:07.0 423.85
86 119 22/VET2 FFS2334673 1957 MATARESE ROLAND DA CS PRESSE 1h22:14.5 23:16.4 426.51
87 231 23/VET2 FFS2605193 1959 Thevier Didier DA CS CHAMROUS 1h22:24.7 23:26.6 429.39
88 164 31/VET1 LCN10134620 1964 FAVRE JEAN JACQUES DA EGREVE NORDI 1h23:05.3 24:07.2 440.86
89 185 24/VET2 TIC69261 1963 MOCQUOT JEAN 1h23:08.7 24:10.6 441.82
90 170 25/VET2 FFS2613121 1960 THENOT PATRICK DA SNGR OISANS 1h23:22.4 24:24.3 445.70
91 136 26/VET2 TIC69244 1961 MACARY PHILIPPE 1h23:42.9 24:44.8 451.49
92 160 27/VET2 LCN10122568 1961 VERNIN FRANCOIS DA 1h24:42.0 25:43.9 468.19
93 205 32/VET1 LCN10115248 1967 NERRIERE CHRISTIAN 1h25:05.3 26:07.2 474.78
94 209 3/VET3 TIC69369 1950 VICIER JOSEPH DA SN CHARTROUS 1h25:07.3 26:09.2 475.34
95 222 28/VET2 TIC69378 1956 STAROPOLI FREDERIC 1h25:47.1 26:49.0 486.59
96 111 4/VET3 LCN10117696 1951 GAMBY FRANCOIS DA SN CHARTROUS 1h26:29.0 27:30.9 498.44
97 169 29/VET2 FIS066648 1962 BARETTA PAOLO SC DEL GARDA 1h26:34.4 27:36.3 499.96
98 208 30/VET2 LCN10134642 1963 GEIRSSON JON 1h26:42.4 27:44.3 502.22
99 142 31/VET2 FFS2335652 1956 HUMBERT MARC DA SC SAPPEY 1h26:45.7 27:47.6 503.16
100 211 32/VET2 LCN10121618 1960 MONIN DIDER DA SN CHARTROUS 1h27:24.1 28:26.0 514.01
101 230 33/VET1 TIC69387 1971 BOISSY GWENAEL 1h27:24.9 28:26.8 514.24
102 227 34/VET1 TIC69384 1972 DEPRE JEROME 1h27:27.2 28:29.1 514.89
103 123 35/VET1 LCN10113949 1967 GERBERT GENTHON FRANCIS DA EGREVE NORDI 1h27:34.4 28:36.3 516.92
104 127 36/VET1 LCN101122581 1972 SCHUMMER DAVID DA SN CHARTROUS 1h28:08.5 29:10.4 526.56
105 176 33/VET2 FFS1093307 1958 SALLET JEAN CLAUDE IF CS CHEM PARI 1h28:19.8 29:21.7 529.75
106 149 5/VET3 FFS500431 1949 ROCHAS MAURICE DA CO MERGER 1h29:23.0 30:24.9 547.62
107 228 34/VET2 LCN10129257 1961 ROSSIGNOL BERNARD SA CS LA FECLAZ 1h29:26.8 30:28.7 548.69
108 223 30/SEN TIC69380 1975 RODRIGUEZ YOHAN 1h29:31.3 30:33.2 549.96
109 217 35/VET2 TIC69371 1959 PESENTI SERGE 1h29:38.6 30:40.5 552.02
110 128 36/VET2 LCN10122607 1961 CLUGNET JEAN FRANCOIS DA SN CHARTROUS 1h30:35.1 31:37.0 567.99
111 145 37/VET2 TIC69235 1963 CANNARD CHRISTOPHE 1h30:58.6 32:00.5 574.64
112 219 38/VET2 LCN10167364 1954 BRUEL JEAN MARIE 1h31:33.0 32:34.9 584.36
113 132 37/VET1 FFS2245358 1966 DECHENAUX REMI DA CO SEPT LAUX 1h31:47.5 32:49.4 588.46
114 190 39/VET2 TIC69267 1959 BRUNET MANQUAT GILBERT 1h32:12.5 33:14.4 595.52
115 102 6/VET3 LCN10153974 1951 LOVERA JEAN DA SN CHARTROUS 1h32:34.6 33:36.5 601.77
116 117 38/VET1 TIC69236 1972 COSS LAURENT 1h33:11.9 34:13.8 612.31
117 200 31/SEN LCN10153535 1974 MEYER LOIC 1h33:12.3 34:14.2 612.42
118 163 7/VET3 FFS2600607 1952 BONADIES JEAN PIERRE DA EGREVE NORDI 1h34:38.8 35:40.7 636.87
119 207 8/VET3 TIC69368 1950 RIONDET MICHEL 1h34:40.4 35:42.3 637.32
120 139 40/VET2 TIC69243 1960 BAILLEUL HERVE 1h35:59.1 37:01.0 659.57
121 174 9/VET3 FFS2274458 1953 BOTTESI JEAN LOUIS DA CS VILLARD 1h39:19.1 40:21.0 716.10
122 147 41/VET2 TIC69252 1955 DARS PATRICK 1h40:33.4 41:35.3 737.10
123 131 2/VET4 LCN10134270 1934 GEMOD RENE LY US CORMARANC 1h40:34.6 41:36.5 737.43
124 221 10/VET3 TIC69377 1947 LETOUBLON CHRISTIAN 1h40:49.7 41:51.6 741.70
125 133 11/VET3 FFS2613407 1950 SIMAVILLA JEAN PIERRE DA EGREVE NORDI 1h41:03.9 42:05.8 745.72
126 197 12/VET3 FFS2335519 1952 [I]ARNOUX J PAUL DA US AUTRANNAI 1h43:23.2 44:25.1 785.09
127 177 39/VET1 TIC69253 1967 ANTOINE BERNARD ASRMV 1h45:14.3 46:16.2 816.49
128 225 40/VET1 TIC69382 1973 CADEAU BELLIARD STEPHANE 1h45:35.0 46:36.9 822.34
129 203 42/VET2 FFS2617121 1955 Rideau Michel DA CSNO 1h46:45.2 47:47.1 842.18
130 194 32/SEN TIC69268 1977 CADEAU BELLIARD SEBASTIEN 1h47:58.7 49:00.6 862.95
131 199 43/VET2 TIC69284 1954 STEFANINI JEAN PHILIPPE 1h48:08.5 49:10.4 865.72
132 146 41/VET1 TIC69248 1973 MERMILLOD BLONDIN JEAN DA 1h48:39.4 49:41.3 874.46
133 220 44/VET2 LCN068636 1960 POIREL HERVE 1h49:31.5 50:33.4 889.18
134 224 45/VET2 TIC69381 1956 EYBERT GUILLON MARC 1h49:31.9 50:33.8 889.30
135 116 46/VET2 TIC69238 1957 NEGELE PATRICE 1h50:08.2 51:10.1 899.56
136 143 42/VET1 TIC69250 1971 PINSTON PHILIPPE 1h50:36.9 51:38.8 907.67
137 140 43/VET1 TIC69232 1964 REY PHILIPPE 1h52:11.0 53:12.9 934.26
138 188 13/VET3 TIC69263 1950 BOURDEL ALAIN 2h03:41.9 1h04:43.8 1129.53
139 137 14/VET3 LCN10121592 1946 BAILLY JEAN CLAUDE DA SN CHARTROUS 2h04:02.8 1h05:04.7 1135.43
140 204 15/VET3 FFS2274763 1949 MORI RAYMOND DA SN CHARTROUS 2h12:26.5 1h13:28.4 1277.73
141 154 44/VET1 TIC69247 1964 DREYFUS XAVIER 2h27:00.7 1h28:02.6 1524.83
142 226 45/VET1 TIC69383 1971 VAN DE VIJVER PATRICK 2h29:31.5 1h30:33.4 1567.43
Non partants
14 FFS2130353 1985 GARDIN REMI DA SN CHARTROUS
15 FFS511549 1953 GRINDLER GILLES DA EGREVE NORDI
23 FFS544188 1973 TERMIER NICOLAS DA US AUTRANNAI
103 TIC69229 1961 PELLETIER ERIC
104 TIC69249 1956 ROUVEURE BERNARD
108 TIC69241 1959 PRACHE OLIVIER
113 FFS2206495 1947 [I]JOYAUD J MICHEL DA EGREVE NORDI
126 TIC69242 1963 RADIGOIS CLAUDE
134 TIC69234 1974 GALINDO THIERRY
141 TIC69246 1960 WACK PHILIPPE DA CAF ISERE
144 TIC69230 1959 BELLE CLAUDE
171 FFS2206611 1964 POIROT REGIS DA SNGR OISANS
173 FFS2615353 1978 PRINGUEY ROBIN DA CS VILLARD
179 TIC69257 1963 GREGOIRE HENRI DA AS QUAIX
182 FFS2613575 1977 DELAYE MIKAEL SA CN REVARD
183 TIC69258 1968 PALARIC LAURENT
192 TIC69271 1962 NIER JACQUES